createdAt,value
2022-08-02T00:00:41.592Z,22.80
2022-08-02T00:01:40.856Z,22.81
2022-08-02T00:02:40.943Z,22.81
2022-08-02T00:03:41.144Z,22.81
2022-08-02T00:04:41.294Z,22.83
2022-08-02T00:05:41.511Z,22.80
2022-08-02T00:06:41.675Z,22.78
2022-08-02T00:07:41.841Z,22.80
2022-08-02T00:08:42.004Z,22.78
2022-08-02T00:09:42.164Z,22.78
2022-08-02T00:10:42.334Z,22.75
2022-08-02T00:11:43.208Z,22.72
2022-08-02T00:12:42.674Z,22.73
2022-08-02T00:13:42.833Z,22.73
2022-08-02T00:14:42.994Z,22.70
2022-08-02T00:15:43.178Z,22.72
2022-08-02T00:16:43.334Z,22.72
2022-08-02T00:17:43.526Z,22.73
2022-08-02T00:18:43.684Z,22.73
2022-08-02T00:19:43.851Z,22.72
2022-08-02T00:20:44.024Z,22.69
2022-08-02T00:21:44.185Z,22.69
2022-08-02T00:22:44.346Z,22.68
2022-08-02T00:24:27.535Z,22.69
2022-08-02T00:24:45.707Z,22.72
2022-08-02T00:25:55.431Z,22.72
2022-08-02T00:26:46.015Z,22.70
2022-08-02T00:27:45.205Z,22.72
2022-08-02T00:28:45.357Z,22.69
2022-08-02T00:29:53.041Z,22.68
2022-08-02T00:30:46.766Z,22.66
2022-08-02T00:31:45.914Z,22.69
2022-08-02T00:32:46.066Z,22.70
2022-08-02T00:34:05.650Z,22.73
2022-08-02T00:34:47.417Z,22.73
2022-08-02T00:35:46.606Z,22.68
2022-08-02T00:36:46.769Z,22.65
2022-08-02T00:37:46.937Z,22.66
2022-08-02T00:38:47.087Z,22.68
2022-08-02T00:39:47.245Z,22.69
2022-08-02T00:40:47.436Z,22.69
2022-08-02T00:41:47.597Z,22.68
2022-08-02T00:42:47.757Z,22.68
2022-08-02T00:43:47.919Z,22.66
2022-08-02T00:44:48.082Z,22.68
2022-08-02T00:46:02.119Z,22.63
2022-08-02T00:46:49.430Z,22.63
2022-08-02T00:47:48.617Z,22.63
2022-08-02T00:48:48.778Z,22.66
2022-08-02T00:49:48.967Z,22.63
2022-08-02T00:50:49.157Z,22.66
2022-08-02T00:51:49.315Z,22.65
2022-08-02T00:52:49.458Z,22.62
2022-08-02T00:53:49.618Z,22.60
2022-08-02T00:54:49.778Z,22.60
2022-08-02T00:55:49.978Z,22.62
2022-08-02T00:56:51.204Z,22.60
2022-08-02T00:57:50.328Z,22.60
2022-08-02T00:58:50.488Z,22.57
2022-08-02T00:59:50.648Z,22.55
2022-08-02T01:00:50.829Z,22.55
2022-08-02T01:01:56.406Z,22.55
2022-08-02T01:02:52.167Z,22.57
2022-08-02T01:03:51.348Z,22.59
2022-08-02T01:04:51.537Z,22.59
2022-08-02T01:06:10.205Z,22.57
2022-08-02T01:06:52.868Z,22.59
2022-08-02T01:07:52.045Z,22.60
2022-08-02T01:08:52.238Z,22.63
2022-08-02T01:09:52.399Z,22.62
2022-08-02T01:10:52.618Z,22.63
2022-08-02T01:11:52.777Z,22.65
2022-08-02T01:12:52.937Z,22.65
2022-08-02T01:13:53.097Z,22.66
2022-08-02T01:14:53.289Z,22.66
2022-08-02T01:15:53.469Z,22.65
2022-08-02T01:16:53.635Z,22.66
2022-08-02T01:17:53.789Z,22.65
2022-08-02T01:18:53.988Z,22.68
2022-08-02T01:19:54.138Z,22.68
2022-08-02T01:20:54.349Z,22.68
2022-08-02T01:21:54.523Z,22.66
2022-08-02T01:23:02.757Z,22.68
2022-08-02T01:23:55.859Z,22.68
2022-08-02T01:24:55.039Z,22.68
2022-08-02T01:25:55.249Z,22.68
2022-08-02T01:26:55.371Z,22.65
2022-08-02T01:27:55.560Z,22.65
2022-08-02T01:28:55.749Z,22.63
2022-08-02T01:29:55.913Z,22.63
2022-08-02T01:30:56.119Z,22.63
2022-08-02T01:31:56.280Z,22.60
2022-08-02T01:32:56.439Z,22.60
2022-08-02T01:33:56.600Z,22.60
2022-08-02T01:34:56.759Z,22.59
2022-08-02T01:35:56.942Z,22.57
2022-08-02T01:36:57.111Z,22.55
2022-08-02T01:37:57.260Z,22.54
2022-08-02T01:38:57.469Z,22.55
2022-08-02T01:39:57.620Z,22.55
2022-08-02T01:40:57.828Z,22.51
2022-08-02T01:41:58.102Z,22.48
2022-08-02T01:42:58.150Z,22.48
2022-08-02T01:43:58.309Z,22.47
2022-08-02T01:44:58.501Z,22.48
2022-08-02T01:45:58.671Z,22.45
2022-08-02T01:46:58.833Z,22.44
2022-08-02T01:47:58.980Z,22.41
2022-08-02T01:48:59.198Z,22.39
2022-08-02T01:49:59.360Z,22.39
2022-08-02T01:50:59.551Z,22.39
2022-08-02T01:51:59.711Z,22.39
2022-08-02T01:52:59.873Z,22.36
2022-08-02T01:54:00.035Z,22.38
2022-08-02T01:55:00.220Z,22.39
2022-08-02T01:56:00.391Z,22.38
2022-08-02T01:57:00.564Z,22.38
2022-08-02T01:58:00.711Z,22.38
2022-08-02T01:59:00.902Z,22.38
2022-08-02T02:00:01.519Z,22.35
2022-08-02T02:01:01.303Z,22.36
2022-08-02T02:02:01.414Z,22.35
2022-08-02T02:03:01.575Z,22.32
2022-08-02T02:04:01.753Z,22.35
2022-08-02T02:05:01.949Z,22.32
2022-08-02T02:06:02.150Z,22.29
2022-08-02T02:07:02.307Z,22.30
2022-08-02T02:08:02.482Z,22.29
2022-08-02T02:09:02.649Z,22.29
2022-08-02T02:10:02.804Z,22.29
2022-08-02T02:12:11.451Z,22.29
2022-08-02T02:12:13.555Z,22.26
2022-08-02T02:13:04.316Z,22.26
2022-08-02T02:14:03.493Z,22.26
2022-08-02T02:15:03.692Z,22.25
2022-08-02T02:16:03.902Z,22.25
2022-08-02T02:17:04.064Z,22.25
2022-08-02T02:18:11.294Z,22.22
2022-08-02T02:19:05.403Z,22.23
2022-08-02T02:20:04.593Z,22.22
2022-08-02T02:21:04.763Z,22.20
2022-08-02T02:22:04.923Z,22.18
2022-08-02T02:23:05.112Z,22.18
2022-08-02T02:24:06.546Z,22.17
2022-08-02T02:25:06.630Z,22.13
2022-08-02T02:26:05.662Z,22.13
2022-08-02T02:27:05.823Z,22.10
2022-08-02T02:28:05.974Z,22.02
2022-08-02T02:29:06.175Z,21.96
2022-08-02T02:30:06.333Z,21.93
2022-08-02T02:31:06.507Z,21.91
2022-08-02T02:32:06.675Z,21.82
2022-08-02T02:33:06.866Z,21.76
2022-08-02T02:34:07.025Z,21.73
2022-08-02T02:35:07.184Z,21.64
2022-08-02T02:36:07.363Z,21.60
2022-08-02T02:37:07.523Z,21.51
2022-08-02T02:38:07.674Z,21.46
2022-08-02T02:39:13.047Z,21.43
2022-08-02T02:40:09.048Z,21.37
2022-08-02T02:41:08.246Z,21.32
2022-08-02T02:42:08.812Z,21.27
2022-08-02T02:43:08.575Z,21.24
2022-08-02T02:44:08.736Z,21.22
2022-08-02T02:45:08.927Z,21.18
2022-08-02T02:46:09.098Z,21.15
2022-08-02T02:47:09.269Z,21.12
2022-08-02T02:48:09.416Z,21.07
2022-08-02T02:49:09.638Z,21.05
2022-08-02T02:50:09.806Z,20.99
2022-08-02T02:51:14.332Z,20.97
2022-08-02T02:52:10.454Z,20.93
2022-08-02T02:53:10.341Z,20.93
2022-08-02T02:54:30.060Z,20.92
2022-08-02T02:55:11.668Z,20.87
2022-08-02T02:56:10.867Z,20.87
2022-08-02T02:57:11.023Z,20.88
2022-08-02T02:58:11.206Z,20.90
2022-08-02T02:59:11.399Z,20.93
2022-08-02T03:00:11.554Z,20.93
2022-08-02T03:01:11.788Z,20.95
2022-08-02T03:02:12.194Z,20.96
2022-08-02T03:03:12.099Z,20.97
2022-08-02T03:04:12.304Z,20.99
2022-08-02T03:05:12.427Z,21.02
2022-08-02T03:06:15.316Z,21.02
2022-08-02T03:07:12.777Z,21.07
2022-08-02T03:08:12.948Z,21.07
2022-08-02T03:09:13.126Z,21.09
2022-08-02T03:10:13.307Z,21.07
2022-08-02T03:11:13.507Z,21.07
2022-08-02T03:12:13.841Z,21.11
2022-08-02T03:13:13.827Z,21.14
2022-08-02T03:14:13.999Z,21.14
2022-08-02T03:15:14.189Z,21.14
2022-08-02T03:16:14.382Z,21.15
2022-08-02T03:17:14.528Z,21.18
2022-08-02T03:18:14.708Z,21.18
2022-08-02T03:19:14.881Z,21.17
2022-08-02T03:20:15.064Z,21.14
2022-08-02T03:21:15.260Z,21.15
2022-08-02T03:22:15.456Z,21.12
2022-08-02T03:23:15.569Z,21.14
2022-08-02T03:24:15.749Z,21.14
2022-08-02T03:25:16.924Z,21.15
2022-08-02T03:26:16.088Z,21.12
2022-08-02T03:27:16.238Z,21.12
2022-08-02T03:28:16.398Z,21.09
2022-08-02T03:29:16.560Z,21.09
2022-08-02T03:30:16.739Z,21.11
2022-08-02T03:31:16.936Z,21.11
2022-08-02T03:32:17.070Z,21.09
2022-08-02T03:33:17.259Z,21.07
2022-08-02T03:34:17.439Z,21.03
2022-08-02T03:35:22.926Z,21.06
2022-08-02T03:36:18.811Z,21.05
2022-08-02T03:37:17.959Z,21.06
2022-08-02T03:38:18.149Z,21.06
2022-08-02T03:39:18.340Z,21.06
2022-08-02T03:40:18.530Z,21.07
2022-08-02T03:41:18.738Z,21.07
2022-08-02T03:42:18.879Z,21.07
2022-08-02T03:43:19.059Z,21.09
2022-08-02T03:44:19.249Z,21.07
2022-08-02T03:45:19.440Z,21.07
2022-08-02T03:46:19.821Z,21.05
2022-08-02T03:47:19.820Z,21.05
2022-08-02T03:48:33.819Z,21.03
2022-08-02T03:49:21.207Z,21.00
2022-08-02T03:50:20.301Z,20.99
2022-08-02T03:51:20.519Z,20.99
2022-08-02T03:52:20.651Z,20.95
2022-08-02T03:53:20.840Z,20.95
2022-08-02T03:54:20.993Z,20.93
2022-08-02T03:55:21.183Z,20.93
2022-08-02T03:56:23.447Z,20.90
2022-08-02T03:57:21.503Z,20.88
2022-08-02T03:58:21.660Z,20.90
2022-08-02T03:59:21.821Z,20.90
2022-08-02T04:00:21.980Z,20.90
2022-08-02T04:01:22.232Z,20.92
2022-08-02T04:02:22.311Z,20.95
2022-08-02T04:03:22.471Z,20.93
2022-08-02T04:04:22.632Z,20.93
2022-08-02T04:05:22.800Z,20.95
2022-08-02T04:06:27.246Z,20.97
2022-08-02T04:08:02.524Z,20.96
2022-08-02T04:08:37.079Z,20.96
2022-08-02T04:09:24.521Z,20.97
2022-08-02T04:10:23.701Z,20.97
2022-08-02T04:11:23.918Z,20.99
2022-08-02T04:12:24.044Z,20.99
2022-08-02T04:13:27.449Z,20.99
2022-08-02T04:14:25.383Z,21.00
2022-08-02T04:15:24.572Z,20.96
2022-08-02T04:16:24.752Z,20.95
2022-08-02T04:17:24.982Z,20.96
2022-08-02T04:18:25.120Z,20.99
2022-08-02T04:19:25.306Z,21.00
2022-08-02T04:20:25.475Z,21.00
2022-08-02T04:21:25.652Z,21.06
2022-08-02T04:22:25.804Z,21.07
2022-08-02T04:23:25.993Z,21.12
2022-08-02T04:24:26.156Z,21.15
2022-08-02T04:25:35.608Z,21.18
2022-08-02T04:26:28.491Z,21.22
2022-08-02T04:27:51.096Z,21.25
2022-08-02T04:28:29.126Z,21.29
2022-08-02T04:29:27.012Z,21.32
2022-08-02T04:30:27.208Z,21.33
2022-08-02T04:31:27.355Z,21.39
2022-08-02T04:32:27.549Z,21.43
2022-08-02T04:33:27.695Z,21.48
2022-08-02T04:34:27.874Z,21.54
2022-08-02T04:35:28.062Z,21.57
2022-08-02T04:36:31.652Z,21.61
2022-08-02T04:37:28.433Z,21.62
2022-08-02T04:38:28.576Z,21.64
2022-08-02T04:39:28.753Z,21.69
2022-08-02T04:40:28.933Z,21.69
2022-08-02T04:41:29.121Z,21.70
2022-08-02T04:42:29.314Z,21.70
2022-08-02T04:43:29.466Z,21.70
2022-08-02T04:44:29.647Z,21.69
2022-08-02T04:45:29.825Z,21.70
2022-08-02T04:46:30.015Z,21.66
2022-08-02T04:48:02.451Z,21.66
2022-08-02T04:48:31.344Z,21.62
2022-08-02T04:49:30.587Z,21.61
2022-08-02T04:50:30.719Z,21.61
2022-08-02T04:51:38.190Z,21.61
2022-08-02T04:52:32.063Z,21.61
2022-08-02T04:53:31.223Z,21.60
2022-08-02T04:54:31.405Z,21.64
2022-08-02T04:55:31.588Z,21.64
2022-08-02T04:56:31.766Z,21.69
2022-08-02T04:57:31.966Z,21.70
2022-08-02T04:58:40.646Z,21.72
2022-08-02T04:59:33.276Z,21.73
2022-08-02T05:00:32.739Z,21.76
2022-08-02T05:01:32.634Z,21.80
2022-08-02T05:02:32.830Z,21.82
2022-08-02T05:03:32.973Z,21.83
2022-08-02T05:04:33.148Z,21.82
2022-08-02T05:05:33.327Z,21.82
2022-08-02T05:06:33.506Z,21.82
2022-08-02T05:07:35.996Z,21.83
2022-08-02T05:08:33.847Z,21.85
2022-08-02T05:09:34.037Z,21.85
2022-08-02T05:10:34.216Z,21.85
2022-08-02T05:11:36.713Z,21.88
2022-08-02T05:12:34.575Z,21.88
2022-08-02T05:13:34.717Z,21.89
2022-08-02T05:14:35.906Z,21.92
2022-08-02T05:15:35.099Z,21.91
2022-08-02T05:16:35.277Z,21.93
2022-08-02T05:17:35.477Z,21.95
2022-08-02T05:18:35.628Z,21.98
2022-08-02T05:19:35.807Z,22.02
2022-08-02T05:20:35.987Z,22.08
2022-08-02T05:21:36.167Z,22.13
2022-08-02T05:22:36.370Z,22.15
2022-08-02T05:23:36.535Z,22.20
2022-08-02T05:24:36.717Z,22.28
2022-08-02T05:25:36.896Z,22.35
2022-08-02T05:26:37.077Z,22.41
2022-08-02T05:27:37.267Z,22.53
2022-08-02T05:28:37.429Z,22.70
2022-08-02T05:29:37.588Z,23.03
2022-08-02T05:30:37.762Z,23.44
2022-08-02T05:31:37.929Z,23.87
2022-08-02T05:32:38.108Z,24.29
2022-08-02T05:33:38.258Z,24.69
2022-08-02T05:34:38.429Z,25.03
2022-08-02T05:35:38.596Z,25.36
2022-08-02T05:36:38.772Z,25.66
2022-08-02T05:37:38.945Z,25.90
2022-08-02T05:38:39.131Z,26.15
2022-08-02T05:39:39.288Z,26.38
2022-08-02T05:40:54.285Z,26.66
2022-08-02T05:41:40.612Z,26.96
2022-08-02T05:42:39.816Z,27.22
2022-08-02T05:43:39.990Z,27.54
2022-08-02T05:44:40.171Z,27.83
2022-08-02T05:45:40.349Z,28.14
2022-08-02T05:46:40.522Z,28.41
2022-08-02T05:47:40.710Z,28.70
2022-08-02T05:48:40.891Z,28.96
2022-08-02T05:49:41.155Z,29.23
2022-08-02T05:50:41.253Z,29.45
2022-08-02T05:51:41.412Z,29.68
2022-08-02T05:52:41.609Z,29.69
2022-08-02T05:53:41.761Z,29.72
2022-08-02T05:54:41.952Z,29.87
2022-08-02T05:55:42.122Z,30.10
2022-08-02T05:56:42.312Z,30.28
2022-08-02T05:57:43.689Z,30.39
2022-08-02T05:58:42.680Z,30.51
2022-08-02T05:59:42.833Z,30.61
2022-08-02T06:00:43.002Z,30.65
2022-08-02T06:01:43.223Z,30.81
2022-08-02T06:02:43.373Z,31.03
2022-08-02T06:03:43.513Z,31.33
2022-08-02T06:04:43.703Z,31.61
2022-08-02T06:05:43.873Z,31.90
2022-08-02T06:06:44.063Z,32.23
2022-08-02T06:07:44.254Z,32.52
2022-08-02T06:08:47.523Z,32.80
2022-08-02T06:09:44.604Z,33.02
2022-08-02T06:10:44.795Z,33.27
2022-08-02T06:12:00.766Z,33.52
2022-08-02T06:12:46.164Z,33.74
2022-08-02T06:13:45.326Z,33.83
2022-08-02T06:14:45.507Z,33.83
2022-08-02T06:15:53.336Z,33.84
2022-08-02T06:16:46.846Z,33.86
2022-08-02T06:17:46.038Z,33.80
2022-08-02T06:18:46.213Z,33.69
2022-08-02T06:19:51.541Z,33.57
2022-08-02T06:20:47.556Z,33.58
2022-08-02T06:22:33.962Z,33.67
2022-08-02T06:22:48.151Z,33.79
2022-08-02T06:23:57.692Z,33.94
2022-08-02T06:24:48.268Z,34.08
2022-08-02T06:25:50.144Z,34.29
2022-08-02T06:26:47.627Z,34.45
2022-08-02T06:27:47.809Z,34.57
2022-08-02T06:28:47.988Z,34.70
2022-08-02T06:29:48.168Z,34.86
2022-08-02T06:30:48.349Z,35.00
2022-08-02T06:31:48.520Z,35.11
2022-08-02T06:32:48.730Z,35.10
2022-08-02T06:33:48.890Z,35.04
2022-08-02T06:34:49.082Z,35.02
2022-08-02T06:35:49.250Z,34.96
2022-08-02T06:36:49.480Z,34.95
2022-08-02T06:37:49.630Z,34.92
2022-08-02T06:38:50.888Z,34.95
2022-08-02T06:39:49.961Z,34.92
2022-08-02T06:40:50.159Z,35.00
2022-08-02T06:41:50.331Z,35.08
2022-08-02T06:42:50.534Z,35.14
2022-08-02T06:43:50.673Z,35.22
2022-08-02T06:44:55.559Z,35.26
2022-08-02T06:45:52.043Z,35.26
2022-08-02T06:47:11.530Z,35.31
2022-08-02T06:47:52.424Z,35.29
2022-08-02T06:48:51.621Z,35.36
2022-08-02T06:49:54.239Z,35.46
2022-08-02T06:50:51.920Z,35.60
2022-08-02T06:51:52.093Z,35.76
2022-08-02T06:52:52.304Z,35.82
2022-08-02T06:53:52.463Z,35.66
2022-08-02T06:54:52.642Z,35.48
2022-08-02T06:55:52.815Z,35.33
2022-08-02T06:56:52.995Z,35.24
2022-08-02T06:57:53.884Z,35.23
2022-08-02T06:58:53.356Z,35.27
2022-08-02T06:59:53.546Z,35.27
2022-08-02T07:00:53.708Z,35.31
2022-08-02T07:01:53.945Z,35.42
2022-08-02T07:02:54.058Z,35.52
2022-08-02T07:03:54.237Z,35.74
2022-08-02T07:04:54.415Z,36.01
2022-08-02T07:05:54.587Z,36.31
2022-08-02T07:06:54.768Z,36.55
2022-08-02T07:07:54.960Z,36.74
2022-08-02T07:09:19.401Z,36.91
2022-08-02T07:10:00.741Z,37.03
2022-08-02T07:10:56.479Z,37.14
2022-08-02T07:11:55.658Z,37.20
2022-08-02T07:12:59.619Z,37.18
2022-08-02T07:13:56.029Z,37.06
2022-08-02T07:14:56.207Z,36.81
2022-08-02T07:15:56.380Z,36.47
2022-08-02T07:16:56.558Z,36.25
2022-08-02T07:17:56.741Z,36.24
2022-08-02T07:18:56.880Z,36.40
2022-08-02T07:19:57.068Z,36.58
2022-08-02T07:20:57.241Z,36.73
2022-08-02T07:22:01.756Z,36.86
2022-08-02T07:22:57.612Z,37.03
2022-08-02T07:23:57.752Z,37.21
2022-08-02T07:24:57.921Z,37.23
2022-08-02T07:26:02.882Z,37.30
2022-08-02T07:27:11.367Z,37.42
2022-08-02T07:27:59.459Z,37.44
2022-08-02T07:28:58.619Z,37.56
2022-08-02T07:29:58.800Z,37.49
2022-08-02T07:30:58.975Z,37.29
2022-08-02T07:31:59.152Z,37.17
2022-08-02T07:32:59.353Z,37.06
2022-08-02T07:33:59.495Z,36.99
2022-08-02T07:34:59.675Z,37.10
2022-08-02T07:35:59.834Z,37.26
2022-08-02T07:37:01.023Z,37.45
2022-08-02T07:38:02.175Z,37.65
2022-08-02T07:39:00.366Z,37.84
2022-08-02T07:40:00.575Z,37.97
2022-08-02T07:41:00.714Z,38.24
2022-08-02T07:42:00.887Z,38.48
2022-08-02T07:43:04.096Z,38.74
2022-08-02T07:44:01.246Z,39.00
2022-08-02T07:45:01.427Z,39.17
2022-08-02T07:46:01.616Z,39.31
2022-08-02T07:47:01.757Z,39.31
2022-08-02T07:48:01.948Z,39.44
2022-08-02T07:49:02.185Z,39.72
2022-08-02T07:50:02.335Z,39.92
2022-08-02T07:51:02.489Z,40.14
2022-08-02T07:52:02.658Z,40.28
2022-08-02T07:53:02.862Z,40.38
2022-08-02T07:54:04.777Z,40.47
2022-08-02T07:55:03.208Z,40.50
2022-08-02T07:56:03.381Z,40.51
2022-08-02T07:57:03.560Z,40.50
2022-08-02T07:58:03.740Z,40.70
2022-08-02T07:59:03.929Z,40.92
2022-08-02T08:00:04.111Z,40.99
2022-08-02T08:01:04.354Z,41.00
2022-08-02T08:02:04.507Z,41.07
2022-08-02T08:03:04.651Z,41.19
2022-08-02T08:04:04.833Z,41.31
2022-08-02T08:05:05.019Z,41.50
2022-08-02T08:06:05.191Z,41.77
2022-08-02T08:07:05.383Z,41.94
2022-08-02T08:08:05.587Z,42.02
2022-08-02T08:09:05.743Z,42.09
2022-08-02T08:10:05.922Z,42.28
2022-08-02T08:11:06.114Z,42.43
2022-08-02T08:12:06.305Z,42.31
2022-08-02T08:13:06.495Z,42.31
2022-08-02T08:14:06.711Z,42.31
2022-08-02T08:15:06.857Z,42.48
2022-08-02T08:16:07.025Z,42.65
2022-08-02T08:17:07.219Z,42.65
2022-08-02T08:18:07.406Z,42.74
2022-08-02T08:19:07.587Z,42.81
2022-08-02T08:20:07.757Z,42.85
2022-08-02T08:21:07.956Z,42.97
2022-08-02T08:22:08.126Z,43.01
2022-08-02T08:23:08.326Z,43.04
2022-08-02T08:24:08.467Z,43.16
2022-08-02T08:25:08.668Z,43.13
2022-08-02T08:26:11.638Z,43.18
2022-08-02T08:27:09.998Z,43.31
2022-08-02T08:28:09.168Z,43.48
2022-08-02T08:29:09.329Z,43.50
2022-08-02T08:30:09.521Z,43.41
2022-08-02T08:31:09.697Z,43.20
2022-08-02T08:32:14.162Z,43.00
2022-08-02T08:33:11.060Z,42.69
2022-08-02T08:34:10.218Z,42.38
2022-08-02T08:35:10.389Z,41.94
2022-08-02T08:36:10.559Z,41.25
2022-08-02T08:37:18.306Z,40.51
2022-08-02T08:38:11.920Z,39.94
2022-08-02T08:39:11.082Z,39.36
2022-08-02T08:40:11.252Z,38.99
2022-08-02T08:41:11.451Z,38.67
2022-08-02T08:42:11.752Z,38.64
2022-08-02T08:43:11.800Z,38.68
2022-08-02T08:44:11.933Z,38.71
2022-08-02T08:45:12.122Z,39.04
2022-08-02T08:46:12.310Z,39.63
2022-08-02T08:47:12.483Z,40.23
2022-08-02T08:48:12.708Z,40.80
2022-08-02T08:49:12.875Z,41.28
2022-08-02T08:50:18.890Z,41.71
2022-08-02T08:51:14.183Z,41.91
2022-08-02T08:52:13.762Z,42.21
2022-08-02T08:53:13.838Z,42.38
2022-08-02T08:54:13.704Z,42.58
2022-08-02T08:55:13.885Z,42.67
2022-08-02T08:56:16.256Z,42.69
2022-08-02T08:57:14.222Z,42.78
2022-08-02T08:58:14.426Z,42.99
2022-08-02T08:59:14.625Z,43.24
2022-08-02T09:00:14.728Z,43.53
2022-08-02T09:01:14.994Z,43.69
2022-08-02T09:02:17.191Z,43.80
2022-08-02T09:03:16.294Z,43.92
2022-08-02T09:04:15.447Z,44.11
2022-08-02T09:05:15.637Z,44.11
2022-08-02T09:06:15.808Z,43.95
2022-08-02T09:07:15.998Z,43.91
2022-08-02T09:08:17.153Z,43.92
2022-08-02T09:09:16.359Z,43.95
2022-08-02T09:10:16.530Z,43.94
2022-08-02T09:11:16.725Z,43.89
2022-08-02T09:12:16.890Z,43.87
2022-08-02T09:13:39.157Z,43.99
2022-08-02T09:14:18.280Z,44.14
2022-08-02T09:15:17.438Z,44.39
2022-08-02T09:16:17.610Z,44.59
2022-08-02T09:17:17.823Z,44.55
2022-08-02T09:18:17.982Z,44.54
2022-08-02T09:19:18.251Z,44.65
2022-08-02T09:20:18.384Z,44.78
2022-08-02T09:21:18.544Z,44.98
2022-08-02T09:22:18.719Z,45.20
2022-08-02T09:23:18.902Z,45.29
2022-08-02T09:24:19.094Z,45.28
2022-08-02T09:25:19.272Z,45.12
2022-08-02T09:26:19.443Z,45.12
2022-08-02T09:27:19.633Z,45.15
2022-08-02T09:28:19.810Z,45.08
2022-08-02T09:29:20.005Z,44.69
2022-08-02T09:30:20.154Z,44.44
2022-08-02T09:31:20.361Z,44.27
2022-08-02T09:32:20.535Z,44.11
2022-08-02T09:33:20.715Z,44.22
2022-08-02T09:34:20.895Z,44.33
2022-08-02T09:35:21.075Z,44.37
2022-08-02T09:36:21.256Z,44.65
2022-08-02T09:37:21.434Z,44.87
2022-08-02T09:38:21.626Z,44.96
2022-08-02T09:39:21.816Z,45.12
2022-08-02T09:40:21.995Z,45.12
2022-08-02T09:41:22.168Z,45.31
2022-08-02T09:42:22.356Z,45.39
2022-08-02T09:43:23.540Z,45.39
2022-08-02T09:44:22.761Z,45.40
2022-08-02T09:45:22.898Z,45.46
2022-08-02T09:46:24.372Z,45.47
2022-08-02T09:47:23.277Z,45.66
2022-08-02T09:48:23.439Z,45.92
2022-08-02T09:49:23.717Z,46.16
2022-08-02T09:50:23.789Z,46.10
2022-08-02T09:51:23.968Z,45.93
2022-08-02T09:52:24.149Z,45.89
2022-08-02T09:53:25.327Z,46.12
2022-08-02T09:54:24.561Z,46.12
2022-08-02T09:55:24.701Z,46.20
2022-08-02T09:56:30.278Z,45.68
2022-08-02T09:57:26.051Z,45.51
2022-08-02T09:58:25.258Z,45.65
2022-08-02T09:59:25.432Z,45.75
2022-08-02T10:00:43.559Z,45.85
2022-08-02T10:01:34.178Z,46.04
2022-08-02T10:02:27.080Z,46.26
2022-08-02T10:03:31.081Z,46.45
2022-08-02T10:04:27.394Z,46.48
2022-08-02T10:05:26.523Z,46.72
2022-08-02T10:06:26.703Z,46.92
2022-08-02T10:07:26.881Z,47.03
2022-08-02T10:08:27.066Z,47.04
2022-08-02T10:09:27.263Z,46.76
2022-08-02T10:10:27.418Z,45.96
2022-08-02T10:11:27.596Z,45.59
2022-08-02T10:12:27.774Z,45.39
2022-08-02T10:13:27.953Z,45.46
2022-08-02T10:14:28.163Z,45.61
2022-08-02T10:15:28.324Z,45.65
2022-08-02T10:16:28.514Z,45.50
2022-08-02T10:17:28.685Z,45.02
2022-08-02T10:18:43.279Z,44.37
2022-08-02T10:20:02.288Z,43.54
2022-08-02T10:20:30.235Z,42.65
2022-08-02T10:21:29.386Z,42.13
2022-08-02T10:22:29.576Z,41.75
2022-08-02T10:23:29.750Z,41.41
2022-08-02T10:24:29.945Z,41.12
2022-08-02T10:25:30.120Z,40.77
2022-08-02T10:26:30.298Z,40.21
2022-08-02T10:27:43.298Z,39.62
2022-08-02T10:28:31.650Z,38.92
2022-08-02T10:29:30.838Z,38.09
2022-08-02T10:30:32.009Z,37.49
2022-08-02T10:31:31.168Z,37.07
2022-08-02T10:32:31.375Z,36.83
2022-08-02T10:33:31.505Z,36.58
2022-08-02T10:34:31.927Z,36.31
2022-08-02T10:35:31.859Z,36.08
2022-08-02T10:36:32.041Z,35.85
2022-08-02T10:37:32.220Z,35.55
2022-08-02T10:38:32.418Z,35.30
2022-08-02T10:39:32.579Z,35.04
2022-08-02T10:40:32.730Z,34.83
2022-08-02T10:41:32.900Z,34.60
2022-08-02T10:42:33.088Z,34.35
2022-08-02T10:43:33.260Z,34.08
2022-08-02T10:44:33.451Z,33.80
2022-08-02T10:45:33.627Z,33.59
2022-08-02T10:46:33.815Z,33.37
2022-08-02T10:47:33.980Z,33.20
2022-08-02T10:48:34.163Z,33.14
2022-08-02T10:49:39.877Z,33.09
2022-08-02T10:50:35.513Z,33.07
2022-08-02T10:51:34.718Z,32.96
2022-08-02T10:52:34.865Z,32.87
2022-08-02T10:53:35.042Z,32.75
2022-08-02T10:54:35.243Z,32.68
2022-08-02T10:55:35.413Z,32.60
2022-08-02T10:56:35.595Z,32.49
2022-08-02T10:57:35.754Z,32.43
2022-08-02T10:58:35.942Z,32.30
2022-08-02T10:59:36.304Z,32.18
2022-08-02T11:00:36.330Z,32.11
2022-08-02T11:01:38.567Z,32.01
2022-08-02T11:02:36.661Z,31.92
2022-08-02T11:03:39.406Z,31.84
2022-08-02T11:04:37.044Z,31.71
2022-08-02T11:05:42.769Z,31.61
2022-08-02T11:06:38.356Z,31.46
2022-08-02T11:07:37.513Z,31.39
2022-08-02T11:08:37.696Z,31.33
2022-08-02T11:09:37.906Z,31.29
2022-08-02T11:10:38.046Z,31.27
2022-08-02T11:11:53.554Z,31.22
2022-08-02T11:12:39.421Z,31.18
2022-08-02T11:13:38.607Z,31.10
2022-08-02T11:14:38.827Z,31.09
2022-08-02T11:15:38.957Z,31.09
2022-08-02T11:16:39.147Z,31.14
2022-08-02T11:17:39.327Z,31.17
2022-08-02T11:18:39.509Z,31.22
2022-08-02T11:19:39.667Z,31.24
2022-08-02T11:20:39.837Z,31.22
2022-08-02T11:21:40.020Z,31.24
2022-08-02T11:22:40.199Z,31.27
2022-08-02T11:23:44.722Z,31.29
2022-08-02T11:24:41.589Z,31.28
2022-08-02T11:26:03.278Z,31.27
2022-08-02T11:26:41.917Z,31.27
2022-08-02T11:27:41.099Z,31.29
2022-08-02T11:28:41.279Z,31.37
2022-08-02T11:29:41.471Z,31.37
2022-08-02T11:30:41.650Z,31.42
2022-08-02T11:31:41.830Z,31.44
2022-08-02T11:32:42.010Z,31.49
2022-08-02T11:33:42.190Z,31.52
2022-08-02T11:34:42.388Z,31.55
2022-08-02T11:35:42.530Z,31.52
2022-08-02T11:36:42.712Z,31.54
2022-08-02T11:37:42.891Z,31.52
2022-08-02T11:38:43.072Z,31.47
2022-08-02T11:39:43.272Z,31.44
2022-08-02T11:40:43.425Z,31.43
2022-08-02T11:41:46.416Z,31.39
2022-08-02T11:42:43.772Z,31.36
2022-08-02T11:43:43.952Z,31.36
2022-08-02T11:44:44.150Z,31.39
2022-08-02T11:45:44.293Z,31.40
2022-08-02T11:46:44.473Z,31.37
2022-08-02T11:47:44.645Z,31.34
2022-08-02T11:48:44.841Z,31.37
2022-08-02T11:49:45.073Z,31.40
2022-08-02T11:50:45.184Z,31.44
2022-08-02T11:51:45.384Z,31.47
2022-08-02T11:52:45.534Z,31.51
2022-08-02T11:53:45.713Z,31.49
2022-08-02T11:54:45.906Z,31.47
2022-08-02T11:55:46.047Z,31.49
2022-08-02T11:56:46.225Z,31.51
2022-08-02T11:58:04.456Z,31.56
2022-08-02T11:58:47.594Z,31.55
2022-08-02T11:59:46.795Z,31.54
2022-08-02T12:00:46.944Z,31.52
2022-08-02T12:01:47.126Z,31.54
2022-08-02T12:02:47.354Z,31.59
2022-08-02T12:03:47.580Z,31.61
2022-08-02T12:04:47.676Z,31.59
2022-08-02T12:06:05.617Z,31.58
2022-08-02T12:06:49.037Z,31.58
2022-08-02T12:07:48.228Z,31.58
2022-08-02T12:08:54.457Z,31.58
2022-08-02T12:09:49.578Z,31.56
2022-08-02T12:10:48.750Z,31.56
2022-08-02T12:11:48.920Z,31.56
2022-08-02T12:12:49.131Z,31.58
2022-08-02T12:13:57.307Z,31.59
2022-08-02T12:14:50.474Z,31.58
2022-08-02T12:15:49.618Z,31.47
2022-08-02T12:16:49.808Z,31.40
2022-08-02T12:17:49.991Z,31.36
2022-08-02T12:18:50.169Z,31.39
2022-08-02T12:19:50.359Z,31.37
2022-08-02T12:20:50.509Z,31.39
2022-08-02T12:21:50.701Z,31.43
2022-08-02T12:22:50.881Z,31.49
2022-08-02T12:24:00.285Z,31.51
2022-08-02T12:24:52.262Z,31.47
2022-08-02T12:25:51.409Z,31.47
2022-08-02T12:26:51.589Z,31.43
2022-08-02T12:27:53.417Z,31.43
2022-08-02T12:28:51.970Z,31.42
2022-08-02T12:29:58.137Z,31.40
2022-08-02T12:30:53.312Z,31.37
2022-08-02T12:31:56.515Z,31.40
2022-08-02T12:32:53.682Z,31.36
2022-08-02T12:33:52.872Z,31.36
2022-08-02T12:34:53.093Z,31.39
2022-08-02T12:35:53.226Z,31.40
2022-08-02T12:36:53.413Z,31.39
2022-08-02T12:37:53.593Z,31.40
2022-08-02T12:38:53.780Z,31.36
2022-08-02T12:39:53.974Z,31.36
2022-08-02T12:40:54.153Z,31.39
2022-08-02T12:41:54.742Z,31.40
2022-08-02T12:42:54.513Z,31.40
2022-08-02T12:43:54.704Z,31.43
2022-08-02T12:44:54.905Z,31.46
2022-08-02T12:45:55.055Z,31.51
2022-08-02T12:46:55.235Z,31.54
2022-08-02T12:47:55.414Z,31.56
2022-08-02T12:49:17.563Z,31.59
2022-08-02T12:49:56.858Z,31.58
2022-08-02T12:50:55.995Z,31.62
2022-08-02T12:52:00.984Z,31.70
2022-08-02T12:52:57.376Z,31.74
2022-08-02T12:53:58.876Z,31.77
2022-08-02T12:54:56.735Z,31.80